D/T METAR WX W/DIR W/SPE G/SPE TEMP DEWP
19/03/19 20:50 EGPL 192050Z AUTO 22011KT 9999 FEW042/// 08/06 Q1019 SW (220°) 12.7mph 8°C 6°C
19/03/19 20:20 EGPL 192020Z AUTO 23014KT 9999 SCT043/// 09/06 Q1019 SW (230°) 16.1mph 9°C 6°C
19/03/19 19:50 EGPL 191950Z AUTO 23012KT 9999 FEW039/// 09/06 Q1019 SW (230°) 13.8mph 9°C 6°C
19/03/19 19:20 EGPL 191920Z AUTO 24012KT 9999 FEW028/// BKN039/// 09/06 Q1019 WSW (240°) 13.8mph 9°C 6°C
19/03/19 18:50 EGPL 191850Z AUTO 24012KT 9999 FEW020/// SCT038/// 08/06 Q1018 WSW (240°) 13.8mph 8°C 6°C
19/03/19 18:20 EGPL 191820Z AUTO 25011KT 9999 FEW036/// 09/06 Q1018 WSW (250°) 12.7mph 9°C 6°C
19/03/19 17:50 EGPL 191750Z AUTO 25014KT 9999 NCD 09/07 Q1018 WSW (250°) 16.1mph 9°C 7°C
19/03/19 17:20 EGPL 191720Z AUTO 25014KT 9999 FEW035/// 09/07 Q1018 WSW (250°) 16.1mph 9°C 7°C
19/03/19 16:50 EGPL 191650Z AUTO 23014KT 9999 FEW035/// 09/08 Q1017 SW (230°) 16.1mph 9°C 8°C
19/03/19 16:20 EGPL 191620Z 23014KT 9999 FEW015 SCT026 BKN035 09/08 Q1017 SW (230°) 16.1mph 9°C 8°C
19/03/19 15:50 EGPL 191550Z 24015KT 9999 FEW008 SCT018 BKN026 09/08 Q1017 WSW (240°) 17.3mph 9°C 8°C
19/03/19 15:20 EGPL 191520Z 24014KT 9999 -DZ SCT004 BKN007 BKN022 09/09 Q1017 -DZ WSW (240°) 16.1mph 9°C 9°C
19/03/19 14:50 EGPL 191450Z 23016KT 9999 -DZ FEW006 SCT019 BKN029 09/09 Q1016 -DZ SW (230°) 18.4mph 9°C 9°C
19/03/19 14:20 EGPL 191420Z 23016KT 9999 SCT004 BKN005 OVC013 09/09 Q1016 SW (230°) 18.4mph 9°C 9°C
19/03/19 13:50 EGPL 191350Z 23016KT 5000 BR BKN004 09/09 Q1016 BR SW (230°) 18.4mph 9°C 9°C
19/03/19 13:20 EGPL 191320Z 23017KT 4500 BR BKN003 09/09 Q1016 BR SW (230°) 19.6mph 9°C 9°C
19/03/19 12:50 EGPL 191250Z 22017KT 4000 -DZ BR BKN003 BKN013 09/09 Q1016 -DZ BR SW (220°) 19.6mph 9°C 9°C
19/03/19 12:20 EGPL 191220Z 22015KT 9000 VCSH SCT004 BKN005 BKN018 09/09 Q1015 VCSH SW (220°) 17.3mph 9°C 9°C
19/03/19 11:50 EGPL 191150Z 23017KT 6000 VCSH BKN003 BKN005 09/09 Q1015 VCSH SW (230°) 19.6mph 9°C 9°C
19/03/19 11:20 EGPL 191120Z 23017KT 6000 VCSH FEW002 SCT003 BKN005 09/09 Q1015 VCSH SW (230°) 19.6mph 9°C 9°C
19/03/19 10:50 EGPL 191050Z 23018KT 5000 VCSH SCT002 BKN003 BKN004 09/09 Q1015 VCSH SW (230°) 20.7mph 9°C 9°C
19/03/19 10:20 EGPL 191020Z 21016KT 2000 -DZ BR OVC002 09/09 Q1014 -DZ BR SSW (210°) 18.4mph 9°C 9°C
19/03/19 09:50 EGPL 190950Z 21019KT 2300 -DZ BR OVC002 09/09 Q1014 -DZ BR SSW (210°) 21.9mph 9°C 9°C
19/03/19 09:20 EGPL 190920Z 20020KT 3500 -DZ BR SCT002 OVC003 09/09 Q1014 -DZ BR SSW (200°) 23.0mph 9°C 9°C
19/03/19 08:50 EGPL 190850Z 20019KT 3000 -DZ BR SCT002 BKN003 09/08 Q1014 -DZ BR SSW (200°) 21.9mph 9°C 8°C
19/03/19 08:20 EGPL 190820Z 19021KT 2500 -RADZ BR BKN002 BKN003 08/08 Q1014 -RA -DZ BR S (190°) 24.2mph 8°C 8°C
19/03/19 07:50 EGPL 190750Z 19021KT 2000 -RADZ BR BKN002 OVC003 08/08 Q1014 -RA -DZ BR S (190°) 24.2mph 8°C 8°C
19/03/19 07:20 EGPL 190720Z 19021KT 2000 -RA OVC002 08/08 Q1014 REDZ -RA S (190°) 24.2mph 8°C 8°C
19/03/19 06:50 EGPL 190650Z AUTO 19019KT 4100 -DZ OVC002/// 08/08 Q1015 -DZ S (190°) 21.9mph 8°C 8°C
19/03/19 06:20 EGPL 190620Z AUTO 19017KT 9999 OVC003/// 08/08 Q1015 RERA S (190°) 19.6mph 8°C 8°C
19/03/19 05:50 EGPL 190550Z AUTO 19016KT 6000 -RA BKN003/// OVC029/// 08/07 Q1015 -RA S (190°) 18.4mph 8°C 7°C
19/03/19 05:20 EGPL 190520Z AUTO 20014KT 9999 BKN003/// OVC031/// 08/07 Q1015 SSW (200°) 16.1mph 8°C 7°C
19/03/19 04:50 EGPL 190450Z AUTO 20016KT 9999 SCT007/// BKN012/// BKN021/// 08/07 Q1016 SSW (200°) 18.4mph 8°C 7°C
19/03/19 04:20 EGPL 190420Z AUTO 20016KT 9999 BKN004/// OVC015/// 08/07 Q1016 SSW (200°) 18.4mph 8°C 7°C
19/03/19 03:50 EGPL 190350Z AUTO 21017KT 9999 SCT006/// BKN012/// BKN017/// 08/07 Q1016 SSW (210°) 19.6mph 8°C 7°C
19/03/19 03:20 EGPL 190320Z AUTO 20014KT 9999 FEW007/// BKN022/// OVC028/// 08/07 Q1016 SSW (200°) 16.1mph 8°C 7°C
19/03/19 02:50 EGPL 190250Z AUTO 20012KT 9999 BKN028/// 08/07 Q1017 SSW (200°) 13.8mph 8°C 7°C
19/03/19 02:20 EGPL 190220Z AUTO 21010KT 9999 BKN030/// 08/07 Q1017 SSW (210°) 11.5mph 8°C 7°C
19/03/19 01:50 EGPL 190150Z AUTO 22009KT 9999 BKN033/// 08/07 Q1017 SW (220°) 10.4mph 8°C 7°C
19/03/19 01:20 EGPL 190120Z AUTO 21008KT 9999 FEW016/// SCT021/// BKN033/// 08/08 Q1017 SSW (210°) 9.2mph 8°C 8°C
19/03/19 00:50 EGPL 190050Z AUTO 22007KT 9999 SCT003/// BKN007/// OVC033/// 08/08 Q1017 SW (220°) 8.1mph 8°C 8°C
19/03/19 00:20 EGPL 190020Z AUTO 24008KT 9999 BKN003/// BKN009/// OVC033/// 08/08 Q1017 REDZ WSW (240°) 9.2mph 8°C 8°C
18/03/19 23:50 EGPL 182350Z AUTO 20011KT 2300 DZ BKN003/// BKN008/// BKN015/// 08/08 Q1017 RERA DZ SSW (200°) 12.7mph 8°C 8°C
18/03/19 23:20 EGPL 182320Z AUTO 20009KT 9999 SCT014/// BKN018/// OVC032/// 08/08 Q1017 SSW (200°) 10.4mph 8°C 8°C
18/03/19 22:50 EGPL 182250Z AUTO 21010KT 9999 OVC022/// 08/07 Q1018 SSW (210°) 11.5mph 8°C 7°C
18/03/19 22:20 EGPL 182220Z AUTO 20008KT 9999 FEW010/// OVC030/// 08/07 Q1018 SSW (200°) 9.2mph 8°C 7°C
18/03/19 21:50 EGPL 182150Z AUTO 20010KT 9999 FEW011/// SCT030/// BKN043/// 08/07 Q1018 SSW (200°) 11.5mph 8°C 7°C
18/03/19 21:20 EGPL 182120Z AUTO 20007KT 9999 SCT017/// 08/07 Q1018 SSW (200°) 8.1mph 8°C 7°C
18/03/19 20:50 EGPL 182050Z AUTO 20007KT 9999 SCT016/// 08/07 Q1018 SSW (200°) 8.1mph 8°C 7°C
18/03/19 20:20 EGPL 182020Z AUTO 20006KT 9999 NCD 07/07 Q1017 SSW (200°) 6.9mph 7°C 7°C
18/03/19 19:20 EGPL 181920Z AUTO 20004KT 9999 NCD 07/06 Q1017 SSW (200°) 4.6mph 7°C 6°C
18/03/19 18:50 EGPL 181850Z AUTO 23006KT 9999 NCD 08/06 Q1017 SW (230°) 6.9mph 8°C 6°C
18/03/19 18:20 EGPL 181820Z AUTO 22008KT 9999 NCD 08/07 Q1017 SW (220°) 9.2mph 8°C 7°C
18/03/19 17:50 EGPL 181750Z AUTO 23007KT 9999 NCD 09/07 Q1016 SW (230°) 8.1mph 9°C 7°C
18/03/19 17:20 EGPL 181720Z 25006KT 9999 FEW017 09/07 Q1016 WSW (250°) 6.9mph 9°C 7°C
18/03/19 16:50 EGPL 181650Z 25007KT 9999 FEW017 09/06 Q1016 WSW (250°) 8.1mph 9°C 6°C
18/03/19 16:20 EGPL 181620Z 27008KT 9999 FEW017 09/07 Q1016 W (270°) 9.2mph 9°C 7°C
18/03/19 15:50 EGPL 181550Z 26007KT 9999 FEW017 10/07 Q1015 W (260°) 8.1mph 10°C 7°C
18/03/19 15:20 EGPL 181520Z 26008KT 9999 FEW017 10/07 Q1015 W (260°) 9.2mph 10°C 7°C
18/03/19 14:50 EGPL 181450Z 27008KT 9999 FEW017 10/08 Q1015 W (270°) 9.2mph 10°C 8°C
18/03/19 14:20 EGPL 181420Z 26008KT 9999 FEW017 10/08 Q1014 W (260°) 9.2mph 10°C 8°C
18/03/19 13:50 EGPL 181350Z 27008KT 9999 FEW018 10/08 Q1014 W (270°) 9.2mph 10°C 8°C
18/03/19 13:20 EGPL 181320Z 26008KT 9999 FEW018 10/08 Q1014 W (260°) 9.2mph 10°C 8°C
18/03/19 12:20 EGPL 181220Z 24007KT 9999 FEW007 SCT018 09/08 Q1013 WSW (240°) 8.1mph 9°C 8°C
18/03/19 11:50 EGPL 181150Z 20009KT 9999 FEW005 SCT012 09/08 Q1013 SSW (200°) 10.4mph 9°C 8°C
18/03/19 11:20 EGPL 181120Z 19009KT 9999 FEW005 SCT012 08/07 Q1013 S (190°) 10.4mph 8°C 7°C
18/03/19 10:50 EGPL 181050Z 18009KT 9999 BKN005 08/07 Q1013 S (180°) 10.4mph 8°C 7°C
18/03/19 10:20 EGPL 181020Z 16007KT 9000 -RA BKN004 08/07 Q1012 -RA SSE (160°) 8.1mph 8°C 7°C
18/03/19 09:50 EGPL 180950Z 16006KT 4500 -RADZ BR BKN004 07/06 Q1012 -RA -DZ BR SSE (160°) 6.9mph 7°C 6°C
18/03/19 09:20 EGPL 180920Z 14005KT 6000 -RA BKN006 07/06 Q1012 -RA SE (140°) 5.8mph 7°C 6°C
18/03/19 08:50 EGPL 180850Z 16004KT 9999 BKN006 06/05 Q1012 SSE (160°) 4.6mph 6°C 5°C
18/03/19 08:20 EGPL 180820Z 16004KT 9999 FEW006 SCT010 BKN020 06/05 Q1011 SSE (160°) 4.6mph 6°C 5°C
18/03/19 07:50 EGPL 180750Z 17005KT 080V180 9999 -RA FEW018 SCT031 BKN039 05/05 Q1011 -RA S (170°) 5.8mph 5°C 5°C
18/03/19 07:20 EGPL 180720Z 17005KT 9999 -RADZ SCT016 BKN029 05/05 Q1011 -RA -DZ S (170°) 5.8mph 5°C 5°C
18/03/19 06:50 EGPL 180650Z AUTO 17005KT 9999 -RA BKN030/// BKN042/// 05/04 Q1011 -RA S (170°) 5.8mph 5°C 4°C
18/03/19 06:20 EGPL 180620Z AUTO 17005KT 9999 -RA SCT021/// BKN032/// BKN039/// 05/04 Q1011 -RA S (170°) 5.8mph 5°C 4°C
18/03/19 05:50 EGPL 180550Z AUTO 18008KT 9999 -RA FEW016/// BKN020/// BKN030/// 05/04 Q1011 -RA S (180°) 9.2mph 5°C 4°C
18/03/19 05:20 EGPL 180520Z AUTO 20005KT 9999 -RA FEW019/// BKN024/// BKN030/// 06/04 Q1011 -RA SSW (200°) 5.8mph 6°C 4°C
18/03/19 04:50 EGPL 180450Z AUTO 20005KT 7000 -RA FEW006/// BKN020/// OVC037/// 06/04 Q1011 -RA SSW (200°) 5.8mph 6°C 4°C
18/03/19 04:20 EGPL 180420Z AUTO 20004KT 9999 BKN018/// OVC027/// 05/04 Q1011 SSW (200°) 4.6mph 5°C 4°C
18/03/19 03:50 EGPL 180350Z AUTO 20005KT 9999 BKN021/// 05/03 Q1011 SSW (200°) 5.8mph 5°C 3°C
18/03/19 03:20 EGPL 180320Z AUTO 22009KT 9999 -RA FEW004/// SCT018/// BKN041/// 05/04 Q1011 RERA -RA SW (220°) 10.4mph 5°C 4°C
18/03/19 02:50 EGPL 180250Z AUTO 18003KT 9999 NCD 03/03 Q1012 S (180°) 3.5mph 3°C 3°C
18/03/19 02:20 EGPL 180220Z AUTO 18005KT 9999 SCT032/// SCT049/// 03/02 Q1012 S (180°) 5.8mph 3°C 2°C
18/03/19 01:50 EGPL 180150Z AUTO 17005KT 9999 NCD 03/02 Q1012 S (170°) 5.8mph 3°C 2°C
18/03/19 01:20 EGPL 180120Z AUTO 17006KT 9999 NCD 04/02 Q1012 S (170°) 6.9mph 4°C 2°C
18/03/19 00:50 EGPL 180050Z AUTO 18006KT 9999 NCD 04/02 Q1012 S (180°) 6.9mph 4°C 2°C
18/03/19 00:20 EGPL 180020Z AUTO 22007KT 9999 FEW024/// BKN033/// 05/03 Q1012 SW (220°) 8.1mph 5°C 3°C
17/03/19 23:50 EGPL 172350Z AUTO 22005KT 9999 SCT031/// 05/02 Q1012 SW (220°) 5.8mph 5°C 2°C
17/03/19 23:20 EGPL 172320Z AUTO 22004KT 9999 FEW038/// SCT046/// 05/02 Q1012 SW (220°) 4.6mph 5°C 2°C
17/03/19 22:20 EGPL 172220Z AUTO 25005KT 9999 SCT034/// OVC047/// 06/01 Q1012 WSW (250°) 5.8mph 6°C 1°C
17/03/19 21:50 EGPL 172150Z AUTO 28013KT 9999 FEW033/// BKN044/// 06/04 Q1012 W (280°) 15.0mph 6°C 4°C
17/03/19 21:20 EGPL 172120Z AUTO 32002KT 9999 NCD 06/01 Q1012 NW (320°) 2.3mph 6°C 1°C
17/03/19 20:50 EGPL 172050Z AUTO 33003KT 9999 NCD 05/02 Q1011 NNW (330°) 3.5mph 5°C 2°C
17/03/19 20:20 EGPL 172020Z AUTO 33002KT 9999 NCD 05/02 Q1011 NNW (330°) 2.3mph 5°C 2°C
17/03/19 19:50 EGPL 171950Z AUTO 35001KT 9999 FEW030/// 06/02 Q1011 N (350°) 1.2mph 6°C 2°C
17/03/19 19:20 EGPL 171920Z AUTO 33001KT 9999 NCD 04/02 Q1011 NNW (330°) 1.2mph 4°C 2°C
17/03/19 18:50 EGPL 171850Z AUTO 34001KT 9999 NCD 04/02 Q1011 NNW (340°) 1.2mph 4°C 2°C
17/03/19 18:20 EGPL 171820Z AUTO 33003KT 9999 FEW038/// 05/03 Q1010 NNW (330°) 3.5mph 5°C 3°C
17/03/19 17:20 EGPL 171720Z AUTO 35011KT 9999 FEW005/// SCT027/// BKN044/// 05/03 Q1010 RERA N (350°) 12.7mph 5°C 3°C
17/03/19 16:50 EGPL 171650Z 32021KT 9999 SHRAGS SCT015CB SCT030 05/02 Q1009 SHRA SHGS NW (320°) 24.2mph 5°C 2°C
17/03/19 16:20 EGPL 171620Z 36009KT 9999 VCSH FEW015 SCT030 07/03 Q1008 VCSH N (360°) 10.4mph 7°C 3°C
17/03/19 15:50 EGPL 171550Z 34012KT 9999 VCSH FEW015 SCT030 08/02 Q1008 VCSH NNW (340°) 13.8mph 8°C 2°C
17/03/19 15:20 EGPL 171520Z 35015KT 9999 VCSH FEW015 SCT032 08/02 Q1007 VCSH N (350°) 17.3mph 8°C 2°C
17/03/19 14:50 EGPL 171450Z 01017KT 9999 VCSH FEW015 SCT032 08/02 Q1007 VCSH N (10°) 19.6mph 8°C 2°C
17/03/19 14:20 EGPL 171420Z 35016KT 9999 SCT032 08/02 Q1006 N (350°) 18.4mph 8°C 2°C
17/03/19 13:50 EGPL 171350Z AUTO 35018KT 9999 FEW034/// 08/02 Q1006 N (350°) 20.7mph 8°C 2°C
17/03/19 13:20 EGPL 171320Z AUTO 35018KT 9999 SCT029/// BKN036/// 09/03 Q1005 N (350°) 20.7mph 9°C 3°C
17/03/19 12:20 EGPL 171220Z AUTO 34016KT 9999 FEW028/// SCT049/// 08/04 Q1003 NNW (340°) 18.4mph 8°C 4°C
17/03/19 11:50 EGPL 171150Z AUTO 35020KT 9999 FEW026/// SCT031/// 08/04 Q1003 N (350°) 23.0mph 8°C 4°C
17/03/19 11:20 EGPL 171120Z AUTO 35019G33KT 9999 FEW006/// SCT028/// BKN038/// 06/03 Q1002 RERA N (350°) 21.9mph 38.0mph 6°C 3°C
17/03/19 10:50 EGPL 171050Z AUTO 36018G28KT 9999 SCT021/// SCT028/// 08/04 Q1001 N (360°) 20.7mph 32.2mph 8°C 4°C
17/03/19 09:50 EGPL 170950Z AUTO 01016KT 9999 FEW023/// SCT028/// BKN037/// 07/04 Q0999 N (10°) 18.4mph 7°C 4°C
17/03/19 09:20 EGPL 170920Z AUTO 34018KT 9999 FEW023/// 06/03 Q0998 NNW (340°) 20.7mph 6°C 3°C
17/03/19 08:50 EGPL 170850Z AUTO 35018G28KT 9999 SCT025/// BKN032/// BKN049/// 06/03 Q0997 N (350°) 20.7mph 32.2mph 6°C 3°C
17/03/19 08:20 EGPL 170820Z AUTO 33013KT 9999 FEW022/// SCT035/// 06/03 Q0996 NNW (330°) 15.0mph 6°C 3°C
17/03/19 07:20 EGPL 170720Z AUTO 33014KT 9999 NCD 06/03 Q0994 NNW (330°) 16.1mph 6°C 3°C
17/03/19 06:20 EGPL 170620Z AUTO 32012KT 9999 SCT018/// BKN023/// 06/03 Q0993 NW (320°) 13.8mph 6°C 3°C
17/03/19 05:50 EGPL 170550Z AUTO 28014KT 9999 -RA FEW012/// SCT018/// BKN029/// 05/03 Q0992 RERA -RA W (280°) 16.1mph 5°C 3°C
17/03/19 05:20 EGPL 170520Z AUTO 28017KT 8000 -RA FEW012/// SCT021/// BKN029/// 05/03 Q0992 -RA W (280°) 19.6mph 5°C 3°C
17/03/19 04:50 EGPL 170450Z AUTO 29016KT 9999 FEW005/// BKN011/// BKN020/// 04/02 Q0992 RERA WNW (290°) 18.4mph 4°C 2°C
17/03/19 04:20 EGPL 170420Z AUTO 28023KT 9999 FEW020/// SCT033/// BKN044/// 05/02 Q0991 W (280°) 26.5mph 5°C 2°C
17/03/19 03:50 EGPL 170350Z AUTO 28020KT 9999 FEW024/// SCT034/// 06/02 Q0991 W (280°) 23.0mph 6°C 2°C
17/03/19 03:20 EGPL 170320Z AUTO 29017G27KT 9999 BKN036/// 05/01 Q0991 WNW (290°) 19.6mph 31.1mph 5°C 1°C
17/03/19 02:50 EGPL 170250Z AUTO 28019KT 9999 NCD 06/M00 Q0991 W (280°) 21.9mph 6°C 0°C
17/03/19 02:20 EGPL 170220Z AUTO 29021KT 9999 FEW037/// 05/M00 Q0991 WNW (290°) 24.2mph 5°C 0°C
17/03/19 01:50 EGPL 170150Z AUTO 29020KT 9999 FEW034/// 05/00 Q0991 WNW (290°) 23.0mph 5°C 0°C
17/03/19 01:20 EGPL 170120Z AUTO 29020KT 9999 FEW030/// 05/M00 Q0991 WNW (290°) 23.0mph 5°C 0°C
17/03/19 00:50 EGPL 170050Z AUTO 31018KT 9999 SCT033/// BKN044/// 05/01 Q0990 NW (310°) 20.7mph 5°C 1°C
17/03/19 00:20 EGPL 170020Z AUTO 30020KT 9999 FEW033/// 05/M00 Q0990 WNW (300°) 23.0mph 5°C 0°C
16/03/19 23:50 EGPL 162350Z AUTO 29020KT 9999 NCD 05/M00 Q0990 WNW (290°) 23.0mph 5°C 0°C
16/03/19 23:20 EGPL 162320Z AUTO 29017KT 9999 FEW034/// SCT046/// 05/01 Q0990 WNW (290°) 19.6mph 5°C 1°C
16/03/19 22:50 EGPL 162250Z AUTO 29016KT 9999 FEW043/// 05/01 Q0990 RERA WNW (290°) 18.4mph 5°C 1°C
16/03/19 22:20 EGPL 162220Z AUTO 31018KT 9999 -RA FEW026/// SCT030/// 05/01 Q0990 -RA NW (310°) 20.7mph 5°C 1°C
16/03/19 21:50 EGPL 162150Z AUTO 31019KT 9999 FEW037/// 05/01 Q0990 NW (310°) 21.9mph 5°C 1°C
16/03/19 21:20 EGPL 162120Z AUTO 30015KT 9999 FEW026/// SCT036/// BKN049/// 05/01 Q0989 WNW (300°) 17.3mph 5°C 1°C
16/03/19 20:20 EGPL 162020Z AUTO 31017KT 9999 SCT033/// 05/01 Q0989 NW (310°) 19.6mph 5°C 1°C
16/03/19 19:50 EGPL 161950Z AUTO 31016KT 9999 FEW027/// SCT034/// 05/01 Q0989 NW (310°) 18.4mph 5°C 1°C
16/03/19 19:20 EGPL 161920Z AUTO 00000KT 9999 SCT029/// SCT047/// 05/01 Q0989 N (0°) 5°C 1°C
16/03/19 18:50 EGPL 161850Z AUTO 00000KT 9999 SCT029/// BKN044/// 02/01 Q0988 N (0°) 2°C 1°C
16/03/19 18:20 EGPL 161820Z AUTO 00000KT 9999 FEW031/// SCT049/// 02/01 Q0988 N (0°) 2°C 1°C
16/03/19 17:50 EGPL 161750Z AUTO 02001KT 9999 SCT024/// BKN040/// 03/01 Q0988 NNE (20°) 1.2mph 3°C 1°C
16/03/19 17:20 EGPL 161720Z AUTO 01005KT 9999 FEW032/// 03/02 Q0988 N (10°) 5.8mph 3°C 2°C
16/03/19 16:50 EGPL 161650Z AUTO 34011KT 9999 -RA FEW010/// SCT020/// BKN025/// 03/02 Q0988 -RA NNW (340°) 12.7mph 3°C 2°C